createdAt,value
2023-02-17T00:00:56.484Z,8.30
2023-02-17T00:03:25.272Z,8.30
2023-02-17T00:05:54.733Z,9.50
2023-02-17T00:08:22.597Z,8.30
2023-02-17T00:10:57.933Z,8.30
2023-02-17T00:13:26.219Z,8.30
2023-02-17T00:15:54.652Z,8.30
2023-02-17T00:18:22.544Z,8.40
2023-02-17T00:20:50.601Z,8.40
2023-02-17T00:23:19.870Z,8.40
2023-02-17T00:25:47.748Z,8.40
2023-02-17T00:28:15.635Z,8.40
2023-02-17T00:30:43.520Z,8.40
2023-02-17T00:33:11.696Z,8.50
2023-02-17T00:35:41.749Z,8.50
2023-02-17T00:38:09.648Z,8.50
2023-02-17T00:40:38.998Z,8.50
2023-02-17T00:43:07.070Z,8.50
2023-02-17T00:45:35.301Z,8.50
2023-02-17T00:48:03.456Z,10.40
2023-02-17T00:50:31.379Z,8.60
2023-02-17T00:52:59.210Z,10.60
2023-02-17T00:55:27.162Z,8.60
2023-02-17T00:57:56.389Z,8.60
2023-02-17T01:00:24.505Z,8.60
2023-02-17T01:02:52.422Z,8.60
2023-02-17T01:05:20.521Z,8.70
2023-02-17T01:07:48.409Z,8.70
2023-02-17T01:10:16.831Z,8.70
2023-02-17T01:12:44.727Z,8.70
2023-02-17T01:15:14.163Z,8.70
2023-02-17T01:17:42.268Z,8.70
2023-02-17T01:20:10.621Z,8.70
2023-02-17T01:22:39.605Z,8.70
2023-02-17T01:25:08.226Z,8.70
2023-02-17T01:27:36.634Z,8.80
2023-02-17T01:30:05.541Z,8.80
2023-02-17T01:32:34.803Z,8.80
2023-02-17T01:35:02.692Z,9.10
2023-02-17T01:37:32.796Z,8.80
2023-02-17T01:40:00.747Z,8.80
2023-02-17T01:42:28.724Z,8.80
2023-02-17T01:45:35.833Z,8.80
2023-02-17T01:48:09.656Z,8.80
2023-02-17T01:50:40.726Z,8.80
2023-02-17T01:53:12.687Z,8.80
2023-02-17T01:55:42.222Z,8.80
2023-02-17T01:58:12.931Z,8.80
2023-02-17T02:00:41.541Z,8.80
2023-02-17T02:03:13.891Z,8.80
2023-02-17T02:05:42.870Z,8.80
2023-02-17T02:08:13.148Z,8.80
2023-02-17T02:10:41.333Z,8.80
2023-02-17T02:13:09.928Z,8.80
2023-02-17T02:15:44.530Z,8.80
2023-02-17T02:18:36.611Z,8.80
2023-02-17T02:21:40.229Z,8.80
2023-02-17T02:24:22.248Z,8.90
2023-02-17T02:27:35.682Z,8.80
2023-02-17T02:30:24.876Z,8.80
2023-02-17T02:33:05.217Z,8.80
2023-02-17T02:35:43.516Z,8.80
2023-02-17T02:38:16.168Z,8.90
2023-02-17T02:40:48.218Z,8.90
2023-02-17T02:43:16.862Z,8.80
2023-02-17T02:45:44.812Z,8.80
2023-02-17T02:48:14.067Z,8.80
2023-02-17T02:51:17.328Z,9.60
2023-02-17T02:54:29.898Z,8.80
2023-02-17T02:57:19.224Z,8.80
2023-02-17T02:59:59.272Z,8.80
2023-02-17T03:02:33.153Z,8.80
2023-02-17T03:05:11.465Z,8.90
2023-02-17T03:07:42.590Z,9.00
2023-02-17T03:10:11.107Z,8.80
2023-02-17T03:12:41.566Z,8.90
2023-02-17T03:15:15.524Z,8.90
2023-02-17T03:17:43.410Z,8.90
2023-02-17T03:20:15.032Z,8.90
2023-02-17T03:22:46.157Z,8.90
2023-02-17T03:25:15.131Z,8.90
2023-02-17T03:27:43.071Z,8.90
2023-02-17T03:30:12.029Z,8.90
2023-02-17T03:32:40.228Z,9.00
2023-02-17T03:35:08.632Z,9.00
2023-02-17T03:37:38.077Z,9.00
2023-02-17T03:40:07.259Z,8.90
2023-02-17T03:42:35.325Z,8.90
2023-02-17T03:45:03.189Z,9.00
2023-02-17T03:47:31.042Z,9.00
2023-02-17T03:49:58.918Z,9.00
2023-02-17T03:52:26.777Z,9.00
2023-02-17T03:54:55.993Z,9.00
2023-02-17T03:57:23.871Z,9.00
2023-02-17T03:59:51.784Z,9.00
2023-02-17T04:02:19.661Z,9.00
2023-02-17T04:04:47.560Z,9.60
2023-02-17T04:07:15.589Z,9.00
2023-02-17T04:09:43.576Z,9.00
2023-02-17T04:12:12.819Z,9.00
2023-02-17T04:14:40.680Z,9.00
2023-02-17T04:17:08.524Z,10.60
2023-02-17T04:19:36.536Z,9.00
2023-02-17T04:22:04.621Z,9.00
2023-02-17T04:24:32.526Z,9.00
2023-02-17T04:27:00.376Z,9.00
2023-02-17T04:29:29.652Z,9.10
2023-02-17T04:31:57.720Z,9.00
2023-02-17T04:34:25.716Z,9.10
2023-02-17T04:36:53.630Z,9.10
2023-02-17T04:39:21.601Z,9.10
2023-02-17T04:41:49.520Z,9.10
2023-02-17T04:44:17.408Z,9.10
2023-02-17T04:46:46.658Z,9.10
2023-02-17T04:49:14.550Z,9.20
2023-02-17T04:51:42.448Z,9.10
2023-02-17T04:54:10.374Z,9.50
2023-02-17T04:56:38.261Z,9.20
2023-02-17T04:59:06.116Z,9.20
2023-02-17T05:01:34.086Z,9.20
2023-02-17T05:04:03.424Z,9.20
2023-02-17T05:06:31.296Z,9.20
2023-02-17T05:08:59.183Z,9.30
2023-02-17T05:11:27.113Z,9.30
2023-02-17T05:13:55.008Z,9.30
2023-02-17T05:16:23.041Z,9.30
2023-02-17T05:18:50.966Z,9.30
2023-02-17T05:21:20.177Z,9.30
2023-02-17T05:23:48.074Z,9.30
2023-02-17T05:26:15.976Z,9.40
2023-02-17T05:28:43.878Z,9.30
2023-02-17T05:31:12.511Z,9.40
2023-02-17T05:33:40.454Z,9.40
2023-02-17T05:36:11.037Z,9.40
2023-02-17T05:38:40.941Z,9.40
2023-02-17T05:41:09.034Z,9.50
2023-02-17T05:43:36.921Z,9.50
2023-02-17T05:46:05.909Z,9.40
2023-02-17T05:48:34.367Z,9.50
2023-02-17T05:51:02.392Z,9.40
2023-02-17T05:53:30.350Z,9.50
2023-02-17T05:55:59.735Z,9.50
2023-02-17T05:58:28.235Z,9.50
2023-02-17T06:00:56.162Z,9.50
2023-02-17T06:03:26.473Z,9.50
2023-02-17T06:05:54.385Z,9.50
2023-02-17T06:08:22.380Z,9.50
2023-02-17T06:10:50.237Z,9.50
2023-02-17T06:13:19.485Z,10.60
2023-02-17T06:15:47.818Z,9.50
2023-02-17T06:18:15.721Z,9.50
2023-02-17T06:20:43.702Z,9.50
2023-02-17T06:23:11.960Z,9.50
2023-02-17T06:25:39.928Z,9.60
2023-02-17T06:28:07.890Z,9.50
2023-02-17T06:30:37.102Z,9.60
2023-02-17T06:33:05.139Z,9.60
2023-02-17T06:35:33.059Z,9.60
2023-02-17T06:38:01.034Z,9.60
2023-02-17T06:40:29.000Z,9.60
2023-02-17T06:42:56.876Z,9.60
2023-02-17T06:45:24.782Z,9.60
2023-02-17T06:47:54.078Z,9.60
2023-02-17T06:50:22.569Z,9.60
2023-02-17T06:52:50.461Z,9.60
2023-02-17T06:55:18.531Z,9.60
2023-02-17T06:57:46.433Z,9.60
2023-02-17T07:00:14.870Z,9.60
2023-02-17T07:02:42.891Z,9.60
2023-02-17T07:05:12.221Z,9.60
2023-02-17T07:07:40.128Z,9.60
2023-02-17T07:10:09.188Z,9.60
2023-02-17T07:12:37.107Z,9.60
2023-02-17T07:15:06.190Z,9.70
2023-02-17T07:17:34.131Z,9.60
2023-02-17T07:20:02.053Z,9.70
2023-02-17T07:22:31.264Z,9.70
2023-02-17T07:24:59.135Z,9.70
2023-02-17T07:27:26.987Z,9.70
2023-02-17T07:29:55.378Z,9.70
2023-02-17T07:32:23.299Z,9.70
2023-02-17T07:34:51.188Z,9.70
2023-02-17T07:37:21.669Z,9.80
2023-02-17T07:39:52.294Z,9.80
2023-02-17T07:42:20.205Z,9.80
2023-02-17T07:44:48.115Z,9.80
2023-02-17T07:47:16.021Z,9.80
2023-02-17T07:49:43.901Z,9.80
2023-02-17T07:52:11.765Z,9.80
2023-02-17T07:54:39.816Z,9.90
2023-02-17T07:57:09.055Z,9.90
2023-02-17T07:59:36.915Z,9.90
2023-02-17T08:02:04.842Z,9.90
2023-02-17T08:04:33.605Z,9.90
2023-02-17T08:07:01.907Z,9.90
2023-02-17T08:09:47.050Z,9.90
2023-02-17T08:12:36.045Z,10.00
2023-02-17T08:15:04.365Z,10.00
2023-02-17T08:17:32.278Z,10.00
2023-02-17T08:20:05.857Z,9.90
2023-02-17T08:22:36.216Z,10.00
2023-02-17T08:25:05.948Z,10.00
2023-02-17T08:27:35.251Z,9.90
2023-02-17T08:30:03.488Z,9.90
2023-02-17T08:32:31.535Z,10.00
2023-02-17T08:34:59.792Z,10.00
2023-02-17T08:37:27.709Z,9.90
2023-02-17T08:39:55.573Z,9.90
2023-02-17T08:42:23.649Z,10.00
2023-02-17T08:44:52.854Z,10.00
2023-02-17T08:47:20.889Z,10.00
2023-02-17T08:49:48.821Z,10.00
2023-02-17T08:52:17.369Z,10.00
2023-02-17T08:54:45.679Z,10.00
2023-02-17T08:57:13.582Z,10.00
2023-02-17T08:59:41.511Z,10.00
2023-02-17T09:02:12.092Z,10.00
2023-02-17T09:04:40.054Z,10.90
2023-02-17T09:07:11.416Z,10.40
2023-02-17T09:09:39.448Z,10.00
2023-02-17T09:12:07.977Z,10.10
2023-02-17T09:14:36.183Z,10.10
2023-02-17T09:17:04.424Z,10.10
2023-02-17T09:19:33.736Z,10.10
2023-02-17T09:22:01.619Z,10.90
2023-02-17T09:24:29.651Z,10.10
2023-02-17T09:26:57.661Z,10.10
2023-02-17T09:29:25.596Z,10.10
2023-02-17T09:31:53.798Z,10.20
2023-02-17T09:34:21.796Z,10.10
2023-02-17T09:36:51.270Z,10.20
2023-02-17T09:39:19.144Z,10.80
2023-02-17T09:41:49.941Z,10.20
2023-02-17T09:44:22.506Z,10.20
2023-02-17T09:47:02.100Z,10.20
2023-02-17T09:49:37.382Z,10.20
2023-02-17T09:52:12.599Z,10.20
2023-02-17T09:54:49.514Z,10.30
2023-02-17T09:57:21.133Z,10.30
2023-02-17T09:59:53.626Z,10.30
2023-02-17T10:02:26.901Z,10.30
2023-02-17T10:04:57.656Z,10.30
2023-02-17T10:07:30.522Z,10.40
2023-02-17T10:10:04.215Z,10.30
2023-02-17T10:12:38.571Z,10.40
2023-02-17T10:15:13.311Z,10.40
2023-02-17T10:17:48.920Z,10.40
2023-02-17T10:20:20.878Z,10.50
2023-02-17T10:22:55.906Z,10.60
2023-02-17T10:25:47.147Z,10.50
2023-02-17T10:28:23.058Z,10.60
2023-02-17T10:31:01.170Z,10.60
2023-02-17T10:33:36.267Z,10.70
2023-02-17T10:36:13.001Z,10.80
2023-02-17T10:38:51.060Z,10.90
2023-02-17T10:41:22.330Z,10.80
2023-02-17T10:43:51.257Z,11.00
2023-02-17T10:46:23.644Z,11.10
2023-02-17T10:48:53.704Z,11.60
2023-02-17T10:51:24.492Z,11.30
2023-02-17T10:53:59.516Z,11.40
2023-02-17T10:56:33.486Z,11.50
2023-02-17T10:59:06.367Z,11.60
2023-02-17T11:01:35.298Z,11.60
2023-02-17T11:04:05.121Z,11.70
2023-02-17T11:06:37.489Z,11.70
2023-02-17T11:09:11.059Z,11.80
2023-02-17T11:11:38.948Z,11.80
2023-02-17T11:14:18.830Z,11.90
2023-02-17T11:16:48.993Z,12.00
2023-02-17T11:19:24.323Z,12.30
2023-02-17T11:21:52.804Z,12.10
2023-02-17T11:24:22.302Z,12.10
2023-02-17T11:26:58.252Z,12.10
2023-02-17T11:29:26.465Z,12.10
2023-02-17T11:32:01.553Z,12.10
2023-02-17T11:34:32.893Z,12.10
2023-02-17T11:37:03.312Z,12.10
2023-02-17T11:39:38.991Z,12.10
2023-02-17T11:42:15.957Z,12.10
2023-02-17T11:44:44.196Z,13.10
2023-02-17T11:47:24.121Z,12.20
2023-02-17T11:50:31.752Z,12.80
2023-02-17T11:53:19.971Z,12.30
2023-02-17T11:56:00.759Z,12.20
2023-02-17T11:58:41.138Z,12.20
2023-02-17T12:01:27.204Z,12.20
2023-02-17T12:04:22.786Z,12.30
2023-02-17T12:07:01.367Z,12.30
2023-02-17T12:09:33.145Z,12.30
2023-02-17T12:12:12.599Z,12.30
2023-02-17T12:14:56.658Z,12.30
2023-02-17T12:17:35.922Z,12.30
2023-02-17T12:20:11.763Z,13.30
2023-02-17T12:22:48.057Z,12.10
2023-02-17T12:25:28.988Z,12.10
2023-02-17T12:28:14.857Z,12.00
2023-02-17T12:30:55.132Z,12.00
2023-02-17T12:33:37.638Z,13.00
2023-02-17T12:36:09.232Z,12.90
2023-02-17T12:38:42.861Z,12.00
2023-02-17T12:41:15.302Z,10.30
2023-02-17T12:43:49.357Z,12.00
2023-02-17T12:46:20.991Z,13.10
2023-02-17T12:48:54.488Z,12.00
2023-02-17T12:51:27.222Z,11.90
2023-02-17T12:53:57.340Z,11.90
2023-02-17T12:57:10.254Z,11.90
2023-02-17T12:59:41.290Z,11.90
2023-02-17T13:02:13.519Z,11.80
2023-02-17T13:04:44.226Z,11.80
2023-02-17T13:07:23.934Z,11.80
2023-02-17T13:09:54.348Z,12.00
2023-02-17T13:12:40.441Z,11.80
2023-02-17T13:15:29.173Z,11.80
2023-02-17T13:18:03.083Z,11.80
2023-02-17T13:20:53.316Z,12.30
2023-02-17T13:23:35.679Z,11.60
2023-02-17T13:26:26.304Z,11.50
2023-02-17T13:29:07.646Z,11.40
2023-02-17T13:31:47.376Z,11.50
2023-02-17T13:34:30.144Z,11.60
2023-02-17T13:36:58.421Z,11.30
2023-02-17T13:39:35.259Z,11.20
2023-02-17T13:42:03.762Z,11.20
2023-02-17T13:44:33.614Z,11.20
2023-02-17T13:47:06.044Z,11.10
2023-02-17T13:49:35.242Z,11.00
2023-02-17T13:52:12.385Z,11.10
2023-02-17T13:54:41.866Z,11.00
2023-02-17T13:57:24.041Z,11.00
2023-02-17T13:59:51.991Z,10.90
2023-02-17T14:02:35.342Z,10.90
2023-02-17T14:05:17.159Z,10.80
2023-02-17T14:07:47.361Z,10.80
2023-02-17T14:10:20.915Z,10.80
2023-02-17T14:12:49.819Z,10.80
2023-02-17T14:15:18.773Z,12.40
2023-02-17T14:17:48.016Z,10.70
2023-02-17T14:20:34.477Z,10.70
2023-02-17T14:23:05.780Z,11.00
2023-02-17T14:25:35.887Z,12.00
2023-02-17T14:28:04.176Z,10.70
2023-02-17T14:30:35.439Z,10.70
2023-02-17T14:33:07.335Z,10.80
2023-02-17T14:35:39.268Z,10.80
2023-02-17T14:38:21.777Z,10.80
2023-02-17T14:40:50.280Z,10.80
2023-02-17T14:43:18.196Z,11.00
2023-02-17T14:45:46.485Z,10.80
2023-02-17T14:48:15.873Z,12.00
2023-02-17T14:50:44.725Z,11.30
2023-02-17T14:53:15.423Z,10.80
2023-02-17T14:55:47.436Z,10.80
2023-02-17T14:58:20.639Z,10.80
2023-02-17T15:00:49.184Z,10.90
2023-02-17T15:03:19.246Z,10.90
2023-02-17T15:05:47.372Z,10.90
2023-02-17T15:08:18.290Z,12.00
2023-02-17T15:10:46.276Z,10.90
2023-02-17T15:13:17.244Z,10.90
2023-02-17T15:15:47.429Z,10.90
2023-02-17T15:18:17.477Z,10.80
2023-02-17T15:20:49.524Z,10.80
2023-02-17T15:23:19.629Z,10.80
2023-02-17T15:25:48.264Z,10.80
2023-02-17T15:28:17.886Z,10.80
2023-02-17T15:30:49.705Z,10.80
2023-02-17T15:33:17.613Z,10.70
2023-02-17T15:35:48.045Z,10.70
2023-02-17T15:38:16.080Z,10.70
2023-02-17T15:40:43.951Z,10.70
2023-02-17T15:43:14.945Z,10.70
2023-02-17T15:45:42.873Z,10.70
2023-02-17T15:48:15.061Z,10.70
2023-02-17T15:50:42.979Z,11.30
2023-02-17T15:53:12.206Z,10.70
2023-02-17T15:55:40.452Z,10.70
2023-02-17T15:58:15.109Z,10.70
2023-02-17T16:00:43.179Z,10.70
2023-02-17T16:03:13.463Z,10.70
2023-02-17T16:05:42.111Z,10.60
2023-02-17T16:08:10.326Z,10.60
2023-02-17T16:10:42.285Z,10.60
2023-02-17T16:13:15.342Z,10.60
2023-02-17T16:15:43.929Z,10.60
2023-02-17T16:18:20.615Z,10.60
2023-02-17T16:20:48.799Z,10.60
2023-02-17T16:23:16.833Z,10.60
2023-02-17T16:25:47.372Z,10.50
2023-02-17T16:28:17.665Z,10.50
2023-02-17T16:30:46.327Z,10.50
2023-02-17T16:33:14.699Z,10.50
2023-02-17T16:35:43.497Z,10.50
2023-02-17T16:38:16.357Z,10.50
2023-02-17T16:40:48.171Z,10.50
2023-02-17T16:43:16.683Z,10.60
2023-02-17T16:45:51.071Z,10.60
2023-02-17T16:48:20.266Z,10.60
2023-02-17T16:50:48.304Z,10.60
2023-02-17T16:53:16.181Z,10.60
2023-02-17T16:55:44.352Z,10.60
2023-02-17T16:58:19.058Z,10.60
2023-02-17T17:00:48.137Z,10.60
2023-02-17T17:03:16.078Z,10.60
2023-02-17T17:05:44.136Z,10.60
2023-02-17T17:08:16.020Z,10.60
2023-02-17T17:10:45.060Z,10.60
2023-02-17T17:13:13.409Z,10.50
2023-02-17T17:15:45.473Z,10.50
2023-02-17T17:18:21.364Z,10.50
2023-02-17T17:20:49.717Z,10.50
2023-02-17T17:23:18.726Z,10.50
2023-02-17T17:25:48.368Z,10.50
2023-02-17T17:28:18.552Z,10.50
2023-02-17T17:30:48.581Z,10.50
2023-02-17T17:33:17.149Z,10.40
2023-02-17T17:35:45.001Z,10.30
2023-02-17T17:38:15.291Z,10.20
2023-02-17T17:40:49.133Z,10.20
2023-02-17T17:43:17.185Z,10.10
2023-02-17T17:45:45.108Z,10.10
2023-02-17T17:48:16.538Z,10.00
2023-02-17T17:50:45.020Z,10.00
2023-02-17T17:53:12.981Z,9.90
2023-02-17T17:55:40.896Z,9.90
2023-02-17T17:58:08.921Z,9.90
2023-02-17T18:00:36.789Z,9.80
2023-02-17T18:03:05.089Z,9.80
2023-02-17T18:05:34.475Z,9.80
2023-02-17T18:08:02.515Z,9.70
2023-02-17T18:10:30.505Z,9.70
2023-02-17T18:12:58.434Z,9.60
2023-02-17T18:15:26.825Z,9.60
2023-02-17T18:17:54.786Z,9.50
2023-02-17T18:20:22.772Z,9.50
2023-02-17T18:22:52.040Z,9.40
2023-02-17T18:25:19.984Z,9.30
2023-02-17T18:27:48.739Z,9.20
2023-02-17T18:30:19.405Z,9.10
2023-02-17T18:32:48.088Z,9.00
2023-02-17T18:35:16.186Z,8.90
2023-02-17T18:37:45.255Z,8.90
2023-02-17T18:40:16.519Z,8.80
2023-02-17T18:42:45.693Z,8.80
2023-02-17T18:45:13.981Z,8.80
2023-02-17T18:47:42.867Z,8.70
2023-02-17T18:50:12.522Z,8.60
2023-02-17T18:52:41.221Z,8.60
2023-02-17T18:55:09.654Z,8.60
2023-02-17T18:57:39.068Z,8.50
2023-02-17T19:00:09.560Z,8.50
2023-02-17T19:02:38.114Z,8.40
2023-02-17T19:05:06.371Z,8.40
2023-02-17T19:07:34.964Z,8.40
2023-02-17T19:10:02.976Z,8.40
2023-02-17T19:12:30.896Z,8.40
2023-02-17T19:15:00.181Z,8.40
2023-02-17T19:17:28.119Z,9.00
2023-02-17T19:19:56.073Z,8.30
2023-02-17T19:22:23.981Z,8.20
2023-02-17T19:24:53.863Z,8.20
2023-02-17T19:27:22.046Z,8.10
2023-02-17T19:29:50.051Z,8.10
2023-02-17T19:32:19.467Z,8.00
2023-02-17T19:34:47.367Z,8.10
2023-02-17T19:37:15.533Z,8.10
2023-02-17T19:39:43.401Z,8.00
2023-02-17T19:42:11.302Z,8.00
2023-02-17T19:44:39.182Z,8.00
2023-02-17T19:47:07.056Z,8.00
2023-02-17T19:49:36.342Z,7.90
2023-02-17T19:52:06.185Z,7.80
2023-02-17T19:54:34.117Z,7.80
2023-02-17T19:57:01.975Z,7.80
2023-02-17T19:59:31.960Z,7.80
2023-02-17T20:01:59.968Z,7.80
2023-02-17T20:04:27.869Z,7.80
2023-02-17T20:06:58.485Z,7.80
2023-02-17T20:09:26.385Z,7.70
2023-02-17T20:11:54.295Z,7.70
2023-02-17T20:14:22.874Z,7.60
2023-02-17T20:16:53.145Z,8.60
2023-02-17T20:19:21.004Z,7.60
2023-02-17T20:21:48.905Z,7.70
2023-02-17T20:24:18.198Z,7.70
2023-02-17T20:26:48.235Z,7.60
2023-02-17T20:29:16.108Z,7.60
2023-02-17T20:31:44.374Z,7.60
2023-02-17T20:34:28.852Z,7.50
2023-02-17T20:36:56.891Z,7.60
2023-02-17T20:39:26.838Z,7.60
2023-02-17T20:41:55.836Z,7.50
2023-02-17T20:44:27.794Z,7.50
2023-02-17T20:46:56.926Z,7.50
2023-02-17T20:49:25.195Z,7.50
2023-02-17T20:51:53.247Z,7.50
2023-02-17T20:54:21.140Z,7.40
2023-02-17T20:56:50.961Z,7.40
2023-02-17T20:59:19.081Z,7.40
2023-02-17T21:01:47.183Z,7.30
2023-02-17T21:04:15.224Z,7.30
2023-02-17T21:06:45.637Z,7.30
2023-02-17T21:09:16.291Z,7.30
2023-02-17T21:11:44.240Z,7.20
2023-02-17T21:14:14.202Z,7.20
2023-02-17T21:16:42.266Z,7.20
2023-02-17T21:19:10.440Z,7.20
2023-02-17T21:21:39.183Z,7.20
2023-02-17T21:24:07.533Z,7.10
2023-02-17T21:26:35.646Z,7.10
2023-02-17T21:29:03.638Z,7.00
2023-02-17T21:31:34.072Z,7.00
2023-02-17T21:34:02.117Z,7.00
2023-02-17T21:36:30.029Z,7.00
2023-02-17T21:38:59.043Z,7.00
2023-02-17T21:41:27.701Z,6.90
2023-02-17T21:44:13.573Z,6.90
2023-02-17T21:46:44.040Z,6.90
2023-02-17T21:49:14.260Z,6.90
2023-02-17T21:51:42.408Z,6.80
2023-02-17T21:54:10.752Z,6.80
2023-02-17T21:56:38.985Z,6.80
2023-02-17T21:59:07.397Z,6.80
2023-02-17T22:01:35.597Z,6.80
2023-02-17T22:04:05.560Z,6.70
2023-02-17T22:06:35.606Z,6.80
2023-02-17T22:09:04.484Z,6.70
2023-02-17T22:11:34.884Z,6.70
2023-02-17T22:14:05.365Z,6.90
2023-02-17T22:16:35.634Z,6.70
2023-02-17T22:19:06.599Z,6.90
2023-02-17T22:21:34.958Z,6.70
2023-02-17T22:24:03.651Z,6.70
2023-02-17T22:26:31.981Z,6.70
2023-02-17T22:29:00.138Z,6.70
2023-02-17T22:34:02.670Z,6.70
2023-02-17T22:36:34.454Z,6.70
2023-02-17T22:39:03.866Z,6.60
2023-02-17T22:41:31.987Z,6.70
2023-02-17T22:44:01.731Z,6.70
2023-02-17T22:46:29.842Z,6.60
2023-02-17T22:48:58.633Z,6.70
2023-02-17T22:51:29.356Z,6.90
2023-02-17T22:54:00.585Z,6.70
2023-02-17T22:56:28.777Z,6.80
2023-02-17T22:59:00.610Z,6.60
2023-02-17T23:01:30.244Z,6.70
2023-02-17T23:03:58.225Z,6.90
2023-02-17T23:06:29.436Z,6.60
2023-02-17T23:08:59.603Z,6.60
2023-02-17T23:11:47.290Z,6.70
2023-02-17T23:14:16.333Z,6.50
2023-02-17T23:16:44.269Z,6.50
2023-02-17T23:19:14.367Z,6.50
2023-02-17T23:21:44.254Z,6.60
2023-02-17T23:24:14.894Z,6.60
2023-02-17T23:26:43.095Z,6.50
2023-02-17T23:29:11.503Z,6.50
2023-02-17T23:31:40.194Z,6.50
2023-02-17T23:34:08.552Z,7.80
2023-02-17T23:36:38.904Z,6.60
2023-02-17T23:39:07.271Z,6.60
2023-02-17T23:41:39.338Z,6.60
2023-02-17T23:44:09.044Z,6.60
2023-02-17T23:46:37.389Z,6.60
2023-02-17T23:49:05.984Z,6.70
2023-02-17T23:51:33.872Z,8.20
2023-02-17T23:54:01.754Z,6.90
2023-02-17T23:56:31.843Z,6.70
2023-02-17T23:59:01.769Z,7.00
